createdAt,value
2018-11-25T00:00:16.153Z,23.23
2018-11-25T00:02:44.794Z,25.03
2018-11-25T00:05:13.431Z,24.37
2018-11-25T00:07:42.041Z,25.87
2018-11-25T00:10:10.710Z,23.50
2018-11-25T00:12:40.317Z,23.73
2018-11-25T00:15:09.686Z,21.57
2018-11-25T00:17:38.362Z,21.30
2018-11-25T00:20:10.121Z,22.57
2018-11-25T00:22:39.347Z,23.23
2018-11-25T00:25:10.413Z,23.77
2018-11-25T00:27:39.151Z,24.30
2018-11-25T00:30:14.166Z,24.07
2018-11-25T00:32:42.840Z,25.80
2018-11-25T00:35:12.546Z,27.97
2018-11-25T00:37:47.987Z,28.00
2018-11-25T00:40:17.149Z,27.70
2018-11-25T00:42:46.154Z,28.37
2018-11-25T00:45:18.169Z,26.70
2018-11-25T00:47:46.992Z,26.57
2018-11-25T00:50:15.853Z,25.90
2018-11-25T00:52:45.099Z,24.57
2018-11-25T00:55:14.915Z,22.50
2018-11-25T00:57:43.557Z,23.70
2018-11-25T01:00:16.248Z,21.57
2018-11-25T01:02:45.199Z,27.13
2018-11-25T01:05:14.267Z,24.93
2018-11-25T01:07:42.942Z,26.17
2018-11-25T01:10:14.422Z,28.53
2018-11-25T01:12:43.191Z,27.77
2018-11-25T01:15:12.948Z,26.97
2018-11-25T01:17:41.617Z,24.77
2018-11-25T01:20:11.807Z,27.03
2018-11-25T01:22:40.463Z,28.30
2018-11-25T01:25:10.280Z,25.50
2018-11-25T01:27:39.004Z,24.07
2018-11-25T01:30:14.749Z,25.03
2018-11-25T01:32:43.420Z,22.63
2018-11-25T01:35:12.736Z,23.23
2018-11-25T01:37:41.577Z,22.13
2018-11-25T01:40:12.525Z,22.90
2018-11-25T01:42:41.204Z,22.63
2018-11-25T01:45:13.023Z,21.30
2018-11-25T01:47:41.661Z,21.33
2018-11-25T01:50:11.665Z,20.37
2018-11-25T01:52:40.398Z,21.73
2018-11-25T01:55:10.406Z,20.80
2018-11-25T01:57:39.095Z,20.70
2018-11-25T02:00:18.895Z,20.70
2018-11-25T02:02:47.598Z,21.97
2018-11-25T02:05:16.344Z,21.87
2018-11-25T02:07:44.987Z,22.73
2018-11-25T02:10:18.452Z,23.07
2018-11-25T02:12:47.213Z,23.90
2018-11-25T02:15:16.521Z,23.27
2018-11-25T02:17:45.193Z,25.27
2018-11-25T02:20:18.163Z,26.23
2018-11-25T02:22:46.824Z,25.87
2018-11-25T02:25:15.534Z,23.80
2018-11-25T02:27:44.205Z,24.50
2018-11-25T02:30:14.394Z,25.97
2018-11-25T02:32:43.183Z,25.83
2018-11-25T02:35:12.704Z,26.47
2018-11-25T02:37:41.367Z,26.03
2018-11-25T02:40:11.365Z,26.80
2018-11-25T02:42:40.101Z,26.33
2018-11-25T02:45:12.839Z,26.50
2018-11-25T02:47:41.510Z,24.93
2018-11-25T02:50:24.968Z,26.53
2018-11-25T02:52:54.184Z,26.73
2018-11-25T02:55:24.063Z,26.57
2018-11-25T02:57:52.797Z,23.37
2018-11-25T03:00:21.520Z,23.10
2018-11-25T03:02:50.180Z,22.57
2018-11-25T03:05:18.909Z,22.60
2018-11-25T03:07:47.582Z,23.10
2018-11-25T03:10:16.318Z,24.27
2018-11-25T03:12:45.036Z,24.87
2018-11-25T03:15:15.644Z,25.40
2018-11-25T03:17:44.369Z,25.63
2018-11-25T03:20:15.063Z,25.97
2018-11-25T03:22:43.781Z,25.90
2018-11-25T03:25:13.738Z,23.60
2018-11-25T03:27:42.406Z,24.83
2018-11-25T03:30:21.621Z,23.73
2018-11-25T03:32:52.340Z,24.03
2018-11-25T03:35:21.105Z,25.03
2018-11-25T03:37:49.897Z,25.80
2018-11-25T03:40:19.456Z,25.67
2018-11-25T03:42:48.193Z,25.03
2018-11-25T03:45:17.863Z,26.03
2018-11-25T03:47:46.837Z,26.20
2018-11-25T03:50:15.902Z,27.33
2018-11-25T03:52:44.573Z,25.43
2018-11-25T03:55:14.987Z,23.50
2018-11-25T03:57:43.636Z,25.77
2018-11-25T04:00:13.710Z,25.87
2018-11-25T04:02:42.385Z,27.53
2018-11-25T04:05:12.279Z,27.97
2018-11-25T04:07:40.917Z,27.70
2018-11-25T04:10:11.703Z,27.53
2018-11-25T04:12:40.371Z,26.47
2018-11-25T04:15:14.522Z,25.97
2018-11-25T04:17:43.284Z,26.13
2018-11-25T04:20:14.162Z,26.90
2018-11-25T04:22:42.956Z,27.53
2018-11-25T04:25:12.197Z,28.43
2018-11-25T04:27:40.865Z,26.60
2018-11-25T04:30:24.354Z,26.30
2018-11-25T04:32:53.029Z,26.40
2018-11-25T04:35:21.699Z,27.90
2018-11-25T04:37:50.336Z,26.57
2018-11-25T04:40:19.333Z,26.83
2018-11-25T04:42:48.080Z,27.37
2018-11-25T04:45:17.591Z,27.27
2018-11-25T04:47:46.875Z,28.13
2018-11-25T04:50:18.373Z,26.57
2018-11-25T04:52:47.094Z,26.60
2018-11-25T04:55:16.105Z,27.60
2018-11-25T04:57:49.640Z,27.53
2018-11-25T05:00:18.591Z,28.87
2018-11-25T05:02:47.341Z,29.50
2018-11-25T05:05:16.375Z,33.73
2018-11-25T05:07:45.067Z,33.07
2018-11-25T05:10:14.467Z,33.47
2018-11-25T05:12:43.160Z,32.40
2018-11-25T05:15:14.839Z,32.10
2018-11-25T05:17:43.515Z,34.17
2018-11-25T05:20:12.989Z,36.37
2018-11-25T05:22:41.643Z,38.77
2018-11-25T05:25:12.388Z,34.87
2018-11-25T05:27:41.091Z,30.60
2018-11-25T05:30:12.922Z,35.80
2018-11-25T05:32:41.890Z,34.43
2018-11-25T05:35:11.850Z,34.97
2018-11-25T05:37:40.509Z,31.27
2018-11-25T05:40:11.722Z,31.10
2018-11-25T05:42:40.373Z,28.43
2018-11-25T05:45:10.923Z,37.27
2018-11-25T05:47:39.650Z,42.83
2018-11-25T05:50:11.629Z,46.80
2018-11-25T05:52:40.319Z,49.50
2018-11-25T05:55:10.060Z,47.27
2018-11-25T05:57:38.770Z,39.20
2018-11-25T06:00:15.569Z,42.77
2018-11-25T06:02:44.234Z,41.63
2018-11-25T06:05:13.024Z,44.53
2018-11-25T06:07:41.699Z,41.57
2018-11-25T06:10:12.512Z,44.07
2018-11-25T06:12:41.287Z,53.20
2018-11-25T06:15:12.785Z,51.37
2018-11-25T06:17:41.410Z,58.77
2018-11-25T06:20:17.681Z,64.07
2018-11-25T06:22:46.704Z,64.73
2018-11-25T06:25:18.343Z,65.23
2018-11-25T06:27:46.951Z,65.70
2018-11-25T06:30:17.438Z,63.27
2018-11-25T06:32:46.194Z,66.87
2018-11-25T06:35:15.897Z,67.80
2018-11-25T06:37:44.578Z,56.80
2018-11-25T06:40:14.286Z,58.30
2018-11-25T06:42:42.978Z,50.00
2018-11-25T06:45:17.958Z,50.27
2018-11-25T06:47:46.603Z,42.50
2018-11-25T06:50:15.297Z,33.73
2018-11-25T06:52:43.933Z,31.83
2018-11-25T06:55:13.202Z,37.23
2018-11-25T06:57:41.814Z,39.73
2018-11-25T07:00:25.960Z,36.33
2018-11-25T07:02:55.110Z,31.40
2018-11-25T07:05:23.835Z,32.80
2018-11-25T07:07:52.521Z,31.47
2018-11-25T07:10:22.178Z,31.57
2018-11-25T07:12:52.762Z,31.70
2018-11-25T07:15:21.427Z,31.30
2018-11-25T07:17:50.068Z,33.77
2018-11-25T07:20:19.220Z,33.33
2018-11-25T07:22:47.918Z,32.97
2018-11-25T07:25:23.299Z,32.30
2018-11-25T07:27:52.329Z,32.40
2018-11-25T07:30:24.977Z,32.33
2018-11-25T07:32:53.672Z,33.40
2018-11-25T07:35:23.048Z,34.60
2018-11-25T07:37:51.714Z,32.73
2018-11-25T07:40:21.104Z,37.30
2018-11-25T07:42:49.991Z,40.70
2018-11-25T07:45:20.639Z,41.53
2018-11-25T07:47:49.339Z,41.03
2018-11-25T07:50:18.029Z,43.07
2018-11-25T07:52:47.522Z,44.60
2018-11-25T07:55:20.190Z,43.63
2018-11-25T07:57:49.522Z,43.87
2018-11-25T08:00:19.973Z,45.60
2018-11-25T08:02:48.649Z,47.63
2018-11-25T08:05:20.408Z,46.60
2018-11-25T08:07:49.070Z,42.17
2018-11-25T08:10:17.711Z,40.53
2018-11-25T08:12:46.743Z,44.63
2018-11-25T08:15:17.110Z,48.17
2018-11-25T08:17:45.820Z,47.50
2018-11-25T08:20:15.434Z,59.13
2018-11-25T08:22:44.182Z,66.10
2018-11-25T08:25:17.745Z,57.17
2018-11-25T08:27:46.368Z,53.77
2018-11-25T08:30:18.143Z,46.93
2018-11-25T08:32:46.921Z,43.63
2018-11-25T08:35:16.293Z,40.80
2018-11-25T08:37:45.011Z,39.70
2018-11-25T08:40:17.691Z,35.87
2018-11-25T08:42:46.379Z,36.57
2018-11-25T08:45:15.592Z,36.27
2018-11-25T08:47:44.428Z,34.60
2018-11-25T08:50:16.896Z,32.13
2018-11-25T08:52:46.422Z,32.47
2018-11-25T08:55:16.198Z,34.97
2018-11-25T08:57:44.972Z,35.00
2018-11-25T09:00:16.563Z,32.40
2018-11-25T09:02:45.255Z,35.50
2018-11-25T09:05:16.315Z,33.43
2018-11-25T09:07:45.116Z,36.53
2018-11-25T09:10:17.621Z,34.13
2018-11-25T09:12:55.179Z,43.13
2018-11-25T09:15:18.313Z,38.63
2018-11-25T09:17:47.007Z,38.90
2018-11-25T09:20:16.842Z,38.87
2018-11-25T09:22:45.507Z,38.83
2018-11-25T09:25:18.420Z,39.87
2018-11-25T09:27:47.098Z,39.50
2018-11-25T09:30:18.175Z,38.17
2018-11-25T09:32:46.844Z,37.23
2018-11-25T09:35:15.862Z,37.10
2018-11-25T09:37:44.474Z,36.63
2018-11-25T09:40:14.429Z,39.27
2018-11-25T09:42:43.134Z,38.73
2018-11-25T09:45:13.889Z,40.83
2018-11-25T09:47:42.894Z,40.17
2018-11-25T09:50:14.490Z,39.90
2018-11-25T09:52:43.224Z,37.70
2018-11-25T09:55:16.058Z,39.87
2018-11-25T09:57:46.861Z,38.90
2018-11-25T10:00:18.552Z,38.87
2018-11-25T10:02:47.888Z,38.20
2018-11-25T10:05:17.146Z,35.93
2018-11-25T10:07:45.845Z,36.97
2018-11-25T10:10:16.577Z,36.37
2018-11-25T10:12:45.258Z,37.23
2018-11-25T10:15:15.075Z,37.03
2018-11-25T10:17:44.010Z,37.40
2018-11-25T10:20:19.675Z,35.53
2018-11-25T10:22:48.410Z,34.47
2018-11-25T10:25:17.507Z,34.93
2018-11-25T10:27:46.250Z,35.13
2018-11-25T10:30:18.693Z,37.47
2018-11-25T10:32:48.581Z,35.67
2018-11-25T10:35:17.799Z,37.67
2018-11-25T10:37:46.790Z,38.07
2018-11-25T10:40:18.292Z,37.30
2018-11-25T10:42:47.014Z,38.70
2018-11-25T10:45:19.591Z,40.50
2018-11-25T10:47:48.375Z,37.20
2018-11-25T10:50:19.085Z,36.80
2018-11-25T10:52:48.007Z,36.33
2018-11-25T10:55:17.526Z,36.43
2018-11-25T10:57:47.095Z,36.63
2018-11-25T11:00:22.197Z,37.47
2018-11-25T11:02:56.243Z,36.63
2018-11-25T11:05:30.159Z,35.17
2018-11-25T11:07:59.131Z,35.20
2018-11-25T11:10:27.825Z,34.47
2018-11-25T11:12:56.477Z,32.77
2018-11-25T11:15:25.223Z,31.80
2018-11-25T11:17:54.059Z,30.80
2018-11-25T11:20:22.785Z,31.47
2018-11-25T11:22:51.470Z,30.77
2018-11-25T11:25:20.210Z,32.93
2018-11-25T11:27:48.844Z,31.23
2018-11-25T11:30:17.548Z,31.20
2018-11-25T11:32:47.612Z,32.13
2018-11-25T11:35:16.278Z,32.33
2018-11-25T11:37:44.899Z,32.83
2018-11-25T11:40:14.544Z,34.97
2018-11-25T11:42:43.240Z,35.73
2018-11-25T11:45:13.137Z,33.73
2018-11-25T11:47:42.296Z,33.20
2018-11-25T11:50:19.235Z,32.37
2018-11-25T11:52:47.865Z,34.17
2018-11-25T11:55:17.608Z,34.07
2018-11-25T11:57:46.848Z,34.50
2018-11-25T12:00:30.607Z,45.80
2018-11-25T12:02:59.617Z,33.90
2018-11-25T12:05:28.309Z,32.40
2018-11-25T12:07:56.992Z,31.27
2018-11-25T12:10:25.685Z,33.70
2018-11-25T12:12:54.704Z,32.43
2018-11-25T12:15:30.841Z,32.93
2018-11-25T12:17:55.445Z,34.83
2018-11-25T12:20:24.952Z,36.13
2018-11-25T12:22:54.407Z,37.00
2018-11-25T12:25:23.140Z,37.90
2018-11-25T12:27:51.824Z,38.50
2018-11-25T12:30:20.483Z,40.53
2018-11-25T12:32:50.198Z,39.50
2018-11-25T12:35:19.040Z,37.27
2018-11-25T12:37:48.080Z,39.03
2018-11-25T12:40:20.994Z,39.00
2018-11-25T12:42:56.161Z,39.57
2018-11-25T12:45:25.037Z,40.50
2018-11-25T12:47:53.682Z,45.00
2018-11-25T12:50:23.531Z,47.80
2018-11-25T12:52:52.249Z,51.70
2018-11-25T12:55:22.099Z,51.87
2018-11-25T12:57:50.721Z,51.87
2018-11-25T13:00:33.455Z,53.43
2018-11-25T13:03:02.142Z,39.63
2018-11-25T13:05:30.813Z,45.60
2018-11-25T13:07:59.490Z,45.97
2018-11-25T13:10:28.143Z,45.40
2018-11-25T13:12:56.879Z,31.90
2018-11-25T13:15:25.604Z,29.30
2018-11-25T13:17:54.299Z,26.20
2018-11-25T13:20:23.242Z,30.07
2018-11-25T13:22:51.892Z,25.50
2018-11-25T13:25:20.587Z,24.87
2018-11-25T13:27:50.203Z,23.10
2018-11-25T13:30:24.098Z,24.83
2018-11-25T13:32:55.030Z,24.20
2018-11-25T13:35:24.257Z,23.77
2018-11-25T13:37:52.937Z,24.40
2018-11-25T13:40:21.640Z,25.13
2018-11-25T13:42:50.658Z,23.93
2018-11-25T13:45:19.419Z,22.83
2018-11-25T13:47:48.066Z,23.23
2018-11-25T13:50:16.718Z,23.47
2018-11-25T13:52:45.421Z,23.03
2018-11-25T13:55:19.428Z,24.50
2018-11-25T13:57:48.113Z,22.33
2018-11-25T14:00:25.647Z,22.93
2018-11-25T14:02:54.785Z,23.10
2018-11-25T14:05:23.473Z,23.10
2018-11-25T14:07:52.151Z,23.07
2018-11-25T14:10:23.913Z,24.27
2018-11-25T14:12:52.574Z,25.57
2018-11-25T14:15:21.274Z,27.57
2018-11-25T14:17:49.962Z,26.17
2018-11-25T14:20:18.624Z,26.23
2018-11-25T14:22:47.265Z,23.43
2018-11-25T14:25:17.391Z,28.97
2018-11-25T14:27:46.889Z,30.27
2018-11-25T14:30:21.138Z,30.90
2018-11-25T14:32:49.760Z,33.83
2018-11-25T14:35:18.510Z,31.20
2018-11-25T14:37:47.203Z,30.87
2018-11-25T14:40:17.392Z,32.70
2018-11-25T14:42:46.121Z,32.67
2018-11-25T14:45:15.967Z,36.13
2018-11-25T14:47:44.609Z,36.67
2018-11-25T14:50:15.630Z,39.97
2018-11-25T14:52:45.603Z,41.33
2018-11-25T14:55:15.014Z,40.67
2018-11-25T14:57:43.809Z,42.43
2018-11-25T15:00:27.192Z,44.37
2018-11-25T15:03:04.210Z,47.33
2018-11-25T15:05:37.580Z,51.33
2018-11-25T15:08:07.294Z,52.07
2018-11-25T15:10:36.026Z,56.80
2018-11-25T15:13:05.167Z,57.43
2018-11-25T15:15:33.844Z,54.77
2018-11-25T15:18:02.466Z,53.30
2018-11-25T15:20:31.151Z,50.83
2018-11-25T15:23:02.479Z,56.57
2018-11-25T15:25:34.826Z,64.30
2018-11-25T15:28:03.448Z,58.27
2018-11-25T15:30:32.056Z,52.73
2018-11-25T15:33:00.710Z,53.03
2018-11-25T15:35:29.451Z,54.00
2018-11-25T15:37:58.443Z,54.97
2018-11-25T15:40:30.298Z,53.93
2018-11-25T15:42:59.194Z,55.80
2018-11-25T15:45:27.911Z,53.53
2018-11-25T15:48:08.767Z,54.87
2018-11-25T15:50:37.478Z,48.03
2018-11-25T15:53:07.824Z,54.00
2018-11-25T15:55:37.215Z,52.93
2018-11-25T15:58:06.325Z,56.30
2018-11-25T16:00:35.011Z,57.07
2018-11-25T16:03:03.771Z,52.37
2018-11-25T16:05:33.568Z,51.17
2018-11-25T16:08:02.602Z,57.90
2018-11-25T16:10:31.868Z,63.07
2018-11-25T16:13:00.527Z,60.70
2018-11-25T16:15:29.905Z,63.40
2018-11-25T16:17:58.645Z,68.20
2018-11-25T16:20:28.322Z,66.07
2018-11-25T16:23:01.432Z,110.80
2018-11-25T16:25:48.197Z,111.03
2018-11-25T16:28:21.209Z,112.03
2018-11-25T16:30:50.149Z,84.30
2018-11-25T16:33:18.842Z,99.00
2018-11-25T16:35:55.395Z,104.47
2018-11-25T16:38:24.114Z,96.17
2018-11-25T16:40:52.746Z,68.70
2018-11-25T16:43:22.327Z,48.37
2018-11-25T16:45:51.049Z,50.40
2018-11-25T16:48:19.700Z,46.67
2018-11-25T16:50:48.301Z,41.73
2018-11-25T16:53:17.124Z,41.20
2018-11-25T16:55:45.832Z,51.70
2018-11-25T16:58:14.570Z,55.73
2018-11-25T17:00:43.242Z,52.67
2018-11-25T17:03:11.887Z,56.43
2018-11-25T17:05:43.184Z,61.70
2018-11-25T17:08:17.121Z,58.93
2018-11-25T17:10:46.680Z,57.27
2018-11-25T17:13:15.354Z,45.43
2018-11-25T17:15:44.416Z,85.23
2018-11-25T17:18:13.061Z,66.00
2018-11-25T17:20:41.849Z,44.53
2018-11-25T17:23:10.487Z,38.73
2018-11-25T17:25:39.126Z,36.27
2018-11-25T17:28:08.144Z,38.10
2018-11-25T17:30:36.795Z,35.40
2018-11-25T17:33:05.821Z,36.63
2018-11-25T17:35:34.428Z,35.50
2018-11-25T17:38:03.099Z,41.30
2018-11-25T17:40:31.831Z,39.83
2018-11-25T17:43:00.470Z,37.00
2018-11-25T17:45:29.503Z,31.30
2018-11-25T17:47:58.133Z,34.13
2018-11-25T17:50:28.866Z,34.83
2018-11-25T17:52:57.501Z,35.60
2018-11-25T17:55:27.874Z,36.67
2018-11-25T17:57:56.875Z,34.93
2018-11-25T18:00:34.429Z,35.30
2018-11-25T18:03:03.771Z,34.60
2018-11-25T18:05:38.712Z,35.13
2018-11-25T18:08:01.151Z,30.90
2018-11-25T18:10:29.796Z,27.80
2018-11-25T18:12:58.511Z,28.10
2018-11-25T18:15:27.199Z,28.40
2018-11-25T18:18:06.263Z,22.00
2018-11-25T18:20:46.054Z,22.57
2018-11-25T18:23:14.682Z,23.60
2018-11-25T18:25:43.485Z,22.83
2018-11-25T18:28:12.873Z,21.40
2018-11-25T18:30:42.653Z,21.07
2018-11-25T18:33:11.411Z,18.90
2018-11-25T18:35:40.098Z,19.60
2018-11-25T18:38:09.062Z,19.27
2018-11-25T18:40:37.683Z,19.37
2018-11-25T18:43:07.207Z,20.17
2018-11-25T18:45:35.897Z,22.37
2018-11-25T18:48:04.703Z,21.03
2018-11-25T18:50:34.182Z,19.83
2018-11-25T18:53:02.836Z,19.17
2018-11-25T18:55:30.226Z,18.60
2018-11-25T18:57:59.585Z,18.93
2018-11-25T19:01:06.963Z,21.47
2018-11-25T19:03:35.875Z,19.90
2018-11-25T19:06:04.626Z,21.17
2018-11-25T19:08:33.273Z,20.30
2018-11-25T19:11:02.379Z,20.77
2018-11-25T19:13:31.336Z,22.63
2018-11-25T19:15:59.979Z,24.40
2018-11-25T19:18:28.625Z,26.47
2018-11-25T19:20:57.325Z,26.43
2018-11-25T19:23:25.973Z,28.50
2018-11-25T19:25:54.621Z,27.03
2018-11-25T19:28:23.171Z,27.40
2018-11-25T19:30:52.265Z,25.97
2018-11-25T19:33:20.978Z,27.73
2018-11-25T19:35:49.646Z,26.03
2018-11-25T19:38:18.321Z,23.17
2018-11-25T19:40:47.009Z,20.03
2018-11-25T19:43:15.780Z,21.07
2018-11-25T19:45:44.528Z,21.50
2018-11-25T19:48:13.597Z,21.87
2018-11-25T19:50:42.262Z,27.13
2018-11-25T19:53:11.588Z,27.37
2018-11-25T19:55:41.208Z,26.83
2018-11-25T19:58:09.847Z,31.97
2018-11-25T20:00:38.665Z,28.13
2018-11-25T20:03:07.830Z,33.47
2018-11-25T20:05:37.524Z,28.93
2018-11-25T20:08:06.623Z,25.50
2018-11-25T20:10:35.276Z,25.70
2018-11-25T20:13:03.954Z,24.30
2018-11-25T20:15:32.607Z,23.30
2018-11-25T20:18:01.335Z,24.93
2018-11-25T20:20:29.994Z,22.03
2018-11-25T20:22:58.670Z,22.60
2018-11-25T20:25:27.319Z,21.27
2018-11-25T20:27:57.694Z,21.90
2018-11-25T20:30:28.282Z,22.90
2018-11-25T20:33:02.009Z,23.00
2018-11-25T20:35:30.807Z,23.97
2018-11-25T20:38:04.561Z,21.57
2018-11-25T20:40:33.363Z,23.97
2018-11-25T20:43:02.116Z,21.93
2018-11-25T20:45:38.972Z,22.27
2018-11-25T20:48:04.837Z,21.43
2018-11-25T20:50:33.585Z,23.17
2018-11-25T20:53:07.468Z,20.80
2018-11-25T20:55:36.596Z,22.67
2018-11-25T20:58:06.382Z,22.13
2018-11-25T21:00:35.075Z,22.13
2018-11-25T21:03:03.719Z,21.37
2018-11-25T21:05:32.375Z,21.57
2018-11-25T21:08:00.998Z,22.27
2018-11-25T21:10:29.637Z,21.93
2018-11-25T21:12:58.247Z,21.33
2018-11-25T21:15:26.876Z,23.03
2018-11-25T21:17:56.034Z,22.90
2018-11-25T21:20:25.887Z,20.77
2018-11-25T21:22:54.601Z,22.17
2018-11-25T21:25:24.667Z,22.10
2018-11-25T21:27:53.359Z,23.13
2018-11-25T21:30:24.260Z,20.27
2018-11-25T21:32:55.203Z,23.33
2018-11-25T21:35:23.881Z,21.20
2018-11-25T21:37:52.502Z,21.63
2018-11-25T21:40:22.528Z,23.27
2018-11-25T21:42:51.726Z,22.70
2018-11-25T21:45:21.093Z,22.30
2018-11-25T21:47:49.983Z,21.53
2018-11-25T21:50:24.685Z,21.43
2018-11-25T21:52:53.341Z,21.23
2018-11-25T21:55:22.243Z,21.63
2018-11-25T21:57:50.835Z,21.90
2018-11-25T22:00:22.235Z,20.17
2018-11-25T22:02:50.970Z,21.90
2018-11-25T22:05:20.118Z,23.40
2018-11-25T22:07:48.655Z,22.93
2018-11-25T22:10:18.531Z,23.47
2018-11-25T22:12:47.496Z,21.23
2018-11-25T22:15:18.099Z,23.00
2018-11-25T22:17:46.823Z,21.90
2018-11-25T22:20:16.118Z,24.20
2018-11-25T22:22:44.834Z,25.93
2018-11-25T22:25:14.543Z,23.37
2018-11-25T22:27:43.338Z,24.10
2018-11-25T22:30:22.026Z,22.80
2018-11-25T22:32:50.834Z,25.17
2018-11-25T22:35:20.727Z,22.80
2018-11-25T22:37:49.449Z,19.47
2018-11-25T22:40:18.894Z,22.50
2018-11-25T22:42:48.444Z,24.03
2018-11-25T22:45:18.077Z,25.53
2018-11-25T22:47:46.728Z,21.23
2018-11-25T22:50:16.619Z,24.83
2018-11-25T22:52:45.433Z,22.47
2018-11-25T22:55:15.885Z,23.33
2018-11-25T22:57:44.623Z,22.30
2018-11-25T23:00:23.757Z,23.80
2018-11-25T23:02:52.434Z,22.33
2018-11-25T23:05:32.602Z,23.97
2018-11-25T23:08:01.315Z,22.00
2018-11-25T23:10:29.994Z,23.33
2018-11-25T23:12:58.679Z,25.13
2018-11-25T23:15:27.448Z,24.23
2018-11-25T23:17:56.125Z,23.20
2018-11-25T23:20:24.755Z,23.43
2018-11-25T23:22:53.355Z,22.40
2018-11-25T23:25:22.105Z,22.60
2018-11-25T23:27:50.804Z,19.17
2018-11-25T23:30:19.628Z,22.30
2018-11-25T23:32:48.454Z,21.57
2018-11-25T23:35:19.702Z,22.07
2018-11-25T23:37:48.460Z,21.70
2018-11-25T23:40:17.204Z,23.90
2018-11-25T23:42:46.574Z,21.67
2018-11-25T23:45:16.576Z,20.43
2018-11-25T23:47:46.126Z,20.47
2018-11-25T23:50:15.426Z,21.60
2018-11-25T23:52:45.897Z,21.67
2018-11-25T23:55:15.149Z,21.70
2018-11-25T23:57:43.938Z,21.53
